sensor_id;sensor_type;location;lat;lon;timestamp;pressure;altitude;pressure_sealevel;temperature;humidity
4085;BME280;2057;50.858;6.572;2022-12-26T00:01:09;99804.09;;;12.17;100.00
4085;BME280;2057;50.858;6.572;2022-12-26T00:03:35;99803.13;;;12.14;100.00
4085;BME280;2057;50.858;6.572;2022-12-26T00:06:01;99810.03;;;12.18;100.00
4085;BME280;2057;50.858;6.572;2022-12-26T00:08:26;99815.75;;;12.11;100.00
4085;BME280;2057;50.858;6.572;2022-12-26T00:10:51;99815.22;;;12.21;100.00
4085;BME280;2057;50.858;6.572;2022-12-26T00:13:17;99797.47;;;12.24;100.00
4085;BME280;2057;50.858;6.572;2022-12-26T00:15:42;99810.03;;;12.18;100.00
4085;BME280;2057;50.858;6.572;2022-12-26T00:18:08;99812.53;;;12.16;100.00
4085;BME280;2057;50.858;6.572;2022-12-26T00:20:33;99818.47;;;12.17;100.00
4085;BME280;2057;50.858;6.572;2022-12-26T00:22:59;99825.03;;;12.10;100.00
4085;BME280;2057;50.858;6.572;2022-12-26T00:25:25;99822.06;;;11.96;100.00
4085;BME280;2057;50.858;6.572;2022-12-26T00:27:50;99814.25;;;11.91;100.00
4085;BME280;2057;50.858;6.572;2022-12-26T00:30:15;99819.75;;;12.04;100.00
4085;BME280;2057;50.858;6.572;2022-12-26T00:32:40;99832.63;;;12.08;100.00
4085;BME280;2057;50.858;6.572;2022-12-26T00:35:06;99824.09;;;12.06;100.00
4085;BME280;2057;50.858;6.572;2022-12-26T00:37:31;99826.59;;;12.05;100.00
4085;BME280;2057;50.858;6.572;2022-12-26T00:39:57;99821.59;;;12.08;100.00
4085;BME280;2057;50.858;6.572;2022-12-26T00:42:22;99818.09;;;12.04;100.00
4085;BME280;2057;50.858;6.572;2022-12-26T00:44:47;99823.84;;;11.99;100.00
4085;BME280;2057;50.858;6.572;2022-12-26T00:47:13;99807.84;;;12.03;100.00
4085;BME280;2057;50.858;6.572;2022-12-26T00:49:38;99833.44;;;12.07;100.00
4085;BME280;2057;50.858;6.572;2022-12-26T00:52:03;99834.84;;;11.98;100.00
4085;BME280;2057;50.858;6.572;2022-12-26T00:54:29;99844.94;;;11.96;100.00
4085;BME280;2057;50.858;6.572;2022-12-26T00:56:54;99839.94;;;11.98;100.00
4085;BME280;2057;50.858;6.572;2022-12-26T00:59:20;99833.22;;;12.00;100.00
4085;BME280;2057;50.858;6.572;2022-12-26T01:01:45;99845.09;;;12.01;100.00
4085;BME280;2057;50.858;6.572;2022-12-26T01:04:10;99839.19;;;12.02;100.00
4085;BME280;2057;50.858;6.572;2022-12-26T01:06:36;99850.41;;;12.07;100.00
4085;BME280;2057;50.858;6.572;2022-12-26T01:09:01;99864.59;;;12.00;100.00
4085;BME280;2057;50.858;6.572;2022-12-26T01:11:26;99871.47;;;12.03;100.00
4085;BME280;2057;50.858;6.572;2022-12-26T01:14:06;99873.91;;;12.00;100.00
4085;BME280;2057;50.858;6.572;2022-12-26T01:16:31;99880.44;;;11.93;100.00
4085;BME280;2057;50.858;6.572;2022-12-26T01:18:57;99878.66;;;11.90;100.00
4085;BME280;2057;50.858;6.572;2022-12-26T01:21:22;99876.31;;;11.97;100.00
4085;BME280;2057;50.858;6.572;2022-12-26T01:23:47;99877.91;;;11.93;100.00
4085;BME280;2057;50.858;6.572;2022-12-26T01:26:13;99870.44;;;11.98;100.00
4085;BME280;2057;50.858;6.572;2022-12-26T01:28:38;99883.63;;;11.87;100.00
4085;BME280;2057;50.858;6.572;2022-12-26T01:31:04;99876.94;;;11.89;100.00
4085;BME280;2057;50.858;6.572;2022-12-26T01:33:31;99891.00;;;11.80;100.00
4085;BME280;2057;50.858;6.572;2022-12-26T01:35:56;99874.06;;;11.80;100.00
4085;BME280;2057;50.858;6.572;2022-12-26T01:38:22;99903.28;;;11.91;100.00
4085;BME280;2057;50.858;6.572;2022-12-26T01:40:48;99890.81;;;11.98;100.00
4085;BME280;2057;50.858;6.572;2022-12-26T01:46:14;99884.91;;;11.99;100.00
4085;BME280;2057;50.858;6.572;2022-12-26T01:48:40;99902.41;;;11.91;100.00
4085;BME280;2057;50.858;6.572;2022-12-26T01:51:06;99877.19;;;11.97;100.00
4085;BME280;2057;50.858;6.572;2022-12-26T01:53:36;99882.09;;;11.92;100.00
4085;BME280;2057;50.858;6.572;2022-12-26T01:56:08;99872.66;;;11.88;100.00
4085;BME280;2057;50.858;6.572;2022-12-26T01:58:38;99863.09;;;11.81;100.00
4085;BME280;2057;50.858;6.572;2022-12-26T02:01:06;99877.22;;;11.73;100.00
4085;BME280;2057;50.858;6.572;2022-12-26T02:03:34;99877.69;;;11.87;100.00
4085;BME280;2057;50.858;6.572;2022-12-26T02:06:19;99890.25;;;11.82;100.00
4085;BME280;2057;50.858;6.572;2022-12-26T02:08:45;99900.19;;;11.76;100.00
4085;BME280;2057;50.858;6.572;2022-12-26T02:13:39;99911.09;;;11.72;100.00
4085;BME280;2057;50.858;6.572;2022-12-26T02:16:07;99898.09;;;11.64;100.00
4085;BME280;2057;50.858;6.572;2022-12-26T02:18:33;99891.34;;;11.65;100.00
4085;BME280;2057;50.858;6.572;2022-12-26T02:24:38;99903.25;;;11.66;100.00
4085;BME280;2057;50.858;6.572;2022-12-26T02:27:33;99907.34;;;11.62;100.00
4085;BME280;2057;50.858;6.572;2022-12-26T02:33:12;99905.97;;;11.70;100.00
4085;BME280;2057;50.858;6.572;2022-12-26T02:43:40;99908.41;;;11.44;100.00
4085;BME280;2057;50.858;6.572;2022-12-26T02:46:39;99910.75;;;11.38;100.00
4085;BME280;2057;50.858;6.572;2022-12-26T02:52:04;99910.50;;;11.30;100.00
4085;BME280;2057;50.858;6.572;2022-12-26T02:55:38;99911.50;;;11.36;100.00
4085;BME280;2057;50.858;6.572;2022-12-26T02:58:17;99906.44;;;11.36;100.00
4085;BME280;2057;50.858;6.572;2022-12-26T03:01:06;99920.81;;;11.35;100.00
4085;BME280;2057;50.858;6.572;2022-12-26T03:03:54;99910.66;;;11.35;100.00
4085;BME280;2057;50.858;6.572;2022-12-26T03:06:50;99907.34;;;11.38;100.00
4085;BME280;2057;50.858;6.572;2022-12-26T03:09:37;99901.31;;;11.34;100.00
4085;BME280;2057;50.858;6.572;2022-12-26T03:12:38;99921.00;;;11.40;100.00
4085;BME280;2057;50.858;6.572;2022-12-26T03:15:24;99911.63;;;11.39;100.00
4085;BME280;2057;50.858;6.572;2022-12-26T03:17:59;99916.63;;;11.37;100.00
4085;BME280;2057;50.858;6.572;2022-12-26T03:20:29;99897.06;;;11.35;100.00
4085;BME280;2057;50.858;6.572;2022-12-26T03:23:17;99906.38;;;11.34;100.00
4085;BME280;2057;50.858;6.572;2022-12-26T03:25:49;99916.56;;;11.34;100.00
4085;BME280;2057;50.858;6.572;2022-12-26T03:28:34;99920.75;;;11.34;100.00
4085;BME280;2057;50.858;6.572;2022-12-26T03:31:04;99928.38;;;11.34;100.00
4085;BME280;2057;50.858;6.572;2022-12-26T03:33:36;99919.94;;;11.35;100.00
4085;BME280;2057;50.858;6.572;2022-12-26T03:39:08;99911.88;;;11.22;100.00
4085;BME280;2057;50.858;6.572;2022-12-26T03:44:57;99932.25;;;11.24;100.00
4085;BME280;2057;50.858;6.572;2022-12-26T03:47:52;99930.81;;;11.30;100.00
4085;BME280;2057;50.858;6.572;2022-12-26T03:50:42;99931.56;;;11.28;100.00
4085;BME280;2057;50.858;6.572;2022-12-26T03:56:19;99931.63;;;11.29;100.00
4085;BME280;2057;50.858;6.572;2022-12-26T03:59:13;99926.63;;;11.33;100.00
4085;BME280;2057;50.858;6.572;2022-12-26T04:02:04;99929.09;;;11.29;100.00
4085;BME280;2057;50.858;6.572;2022-12-26T04:04:51;99931.50;;;11.26;100.00
4085;BME280;2057;50.858;6.572;2022-12-26T04:07:43;99934.84;;;11.25;100.00
4085;BME280;2057;50.858;6.572;2022-12-26T04:10:40;99944.22;;;11.26;100.00
4085;BME280;2057;50.858;6.572;2022-12-26T04:14:49;99946.91;;;11.31;100.00
4085;BME280;2057;50.858;6.572;2022-12-26T04:17:07;99945.81;;;11.24;100.00
4085;BME280;2057;50.858;6.572;2022-12-26T04:19:58;99936.25;;;11.17;100.00
4085;BME280;2057;50.858;6.572;2022-12-26T04:23:17;99950.56;;;11.15;100.00
4085;BME280;2057;50.858;6.572;2022-12-26T04:26:07;99940.56;;;10.97;100.00
4085;BME280;2057;50.858;6.572;2022-12-26T04:28:52;99938.47;;;10.87;100.00
4085;BME280;2057;50.858;6.572;2022-12-26T04:31:47;99943.56;;;10.87;100.00
4085;BME280;2057;50.858;6.572;2022-12-26T04:34:40;99956.25;;;10.87;100.00
4085;BME280;2057;50.858;6.572;2022-12-26T04:37:27;99961.38;;;10.88;100.00
4085;BME280;2057;50.858;6.572;2022-12-26T04:40:16;99959.53;;;10.84;100.00
4085;BME280;2057;50.858;6.572;2022-12-26T04:43:03;99956.03;;;10.80;100.00
4085;BME280;2057;50.858;6.572;2022-12-26T04:45:48;99958.38;;;10.76;100.00
4085;BME280;2057;50.858;6.572;2022-12-26T04:48:13;99963.69;;;10.82;100.00
4085;BME280;2057;50.858;6.572;2022-12-26T04:50:57;99961.06;;;10.79;100.00
4085;BME280;2057;50.858;6.572;2022-12-26T04:53:22;99963.50;;;10.77;100.00
4085;BME280;2057;50.858;6.572;2022-12-26T04:55:48;99966.03;;;10.77;100.00
4085;BME280;2057;50.858;6.572;2022-12-26T04:58:13;99961.53;;;10.70;100.00
4085;BME280;2057;50.858;6.572;2022-12-26T05:00:38;99964.63;;;10.63;100.00
4085;BME280;2057;50.858;6.572;2022-12-26T05:03:04;99971.38;;;10.62;100.00
4085;BME280;2057;50.858;6.572;2022-12-26T05:05:49;99977.56;;;10.48;100.00
4085;BME280;2057;50.858;6.572;2022-12-26T05:11:18;99983.34;;;10.44;100.00
4085;BME280;2057;50.858;6.572;2022-12-26T05:13:43;99982.25;;;10.39;100.00
4085;BME280;2057;50.858;6.572;2022-12-26T05:16:09;99974.13;;;10.26;100.00
4085;BME280;2057;50.858;6.572;2022-12-26T05:18:53;99972.59;;;10.30;100.00
4085;BME280;2057;50.858;6.572;2022-12-26T05:21:37;99977.66;;;10.30;100.00
4085;BME280;2057;50.858;6.572;2022-12-26T05:24:22;99974.13;;;10.26;100.00
4085;BME280;2057;50.858;6.572;2022-12-26T05:27:11;99970.25;;;10.34;100.00
4085;BME280;2057;50.858;6.572;2022-12-26T05:29:56;99973.50;;;10.32;100.00
4085;BME280;2057;50.858;6.572;2022-12-26T05:32:22;99973.19;;;10.24;100.00
4085;BME280;2057;50.858;6.572;2022-12-26T05:35:06;99980.25;;;10.31;100.00
4085;BME280;2057;50.858;6.572;2022-12-26T05:37:31;99975.97;;;10.30;100.00
4085;BME280;2057;50.858;6.572;2022-12-26T05:39:56;99980.94;;;10.27;100.00
4085;BME280;2057;50.858;6.572;2022-12-26T05:42:22;99973.75;;;10.17;100.00
4085;BME280;2057;50.858;6.572;2022-12-26T05:44:47;99959.94;;;10.10;100.00
4085;BME280;2057;50.858;6.572;2022-12-26T05:47:13;99958.25;;;10.11;100.00
4085;BME280;2057;50.858;6.572;2022-12-26T05:49:38;99953.84;;;10.07;100.00
4085;BME280;2057;50.858;6.572;2022-12-26T05:52:03;99966.28;;;10.00;100.00
4085;BME280;2057;50.858;6.572;2022-12-26T05:54:29;99978.03;;;9.98;100.00
4085;BME280;2057;50.858;6.572;2022-12-26T05:56:54;99966.88;;;9.95;100.00
4085;BME280;2057;50.858;6.572;2022-12-26T05:59:19;99978.03;;;9.98;100.00
4085;BME280;2057;50.858;6.572;2022-12-26T06:01:45;99976.47;;;10.02;100.00
4085;BME280;2057;50.858;6.572;2022-12-26T06:04:10;99962.88;;;10.00;100.00
4085;BME280;2057;50.858;6.572;2022-12-26T06:06:35;99974.56;;;9.96;100.00
4085;BME280;2057;50.858;6.572;2022-12-26T06:09:00;99987.78;;;9.89;100.00
4085;BME280;2057;50.858;6.572;2022-12-26T06:11:26;99992.78;;;9.87;100.00
4085;BME280;2057;50.858;6.572;2022-12-26T06:13:51;100012.59;;;9.96;100.00
4085;BME280;2057;50.858;6.572;2022-12-26T06:16:17;99996.44;;;9.94;100.00
4085;BME280;2057;50.858;6.572;2022-12-26T06:18:43;99983.94;;;9.99;100.00
4085;BME280;2057;50.858;6.572;2022-12-26T06:21:12;99981.41;;;9.99;100.00
4085;BME280;2057;50.858;6.572;2022-12-26T06:23:38;99983.91;;;9.97;100.00
4085;BME280;2057;50.858;6.572;2022-12-26T06:26:04;99993.19;;;9.97;100.00
4085;BME280;2057;50.858;6.572;2022-12-26T06:28:32;99991.34;;;9.94;100.00
4085;BME280;2057;50.858;6.572;2022-12-26T06:31:06;99996.72;;;10.00;100.00
4085;BME280;2057;50.858;6.572;2022-12-26T06:33:31;99998.16;;;9.95;100.00
4085;BME280;2057;50.858;6.572;2022-12-26T06:36:08;99995.84;;;10.00;100.00
4085;BME280;2057;50.858;6.572;2022-12-26T06:38:34;99991.66;;;10.00;100.00
4085;BME280;2057;50.858;6.572;2022-12-26T06:41:02;99992.75;;;10.07;100.00
4085;BME280;2057;50.858;6.572;2022-12-26T06:43:28;99985.22;;;10.09;100.00
4085;BME280;2057;50.858;6.572;2022-12-26T06:45:55;99985.69;;;10.00;100.00
4085;BME280;2057;50.858;6.572;2022-12-26T06:48:21;99992.56;;;10.02;100.00
4085;BME280;2057;50.858;6.572;2022-12-26T06:50:46;99995.97;;;10.03;100.00
4085;BME280;2057;50.858;6.572;2022-12-26T06:53:11;99995.97;;;10.03;100.00
4085;BME280;2057;50.858;6.572;2022-12-26T06:55:37;100008.31;;;9.95;100.00
4085;BME280;2057;50.858;6.572;2022-12-26T06:58:02;100022.69;;;9.95;100.00
4085;BME280;2057;50.858;6.572;2022-12-26T07:00:27;100021.94;;;9.97;100.00
4085;BME280;2057;50.858;6.572;2022-12-26T07:02:54;100018.47;;;9.95;100.00
4085;BME280;2057;50.858;6.572;2022-12-26T07:05:19;100017.00;;;10.00;100.00
4085;BME280;2057;50.858;6.572;2022-12-26T07:07:49;100009.41;;;10.00;100.00
4085;BME280;2057;50.858;6.572;2022-12-26T07:10:15;100015.06;;;9.95;100.00
4085;BME280;2057;50.858;6.572;2022-12-26T07:12:40;100015.50;;;9.86;100.00
4085;BME280;2057;50.858;6.572;2022-12-26T07:15:06;100023.84;;;9.83;100.00
4085;BME280;2057;50.858;6.572;2022-12-26T07:17:34;100017.00;;;9.81;100.00
4085;BME280;2057;50.858;6.572;2022-12-26T07:19:59;100028.72;;;9.79;100.00
4085;BME280;2057;50.858;6.572;2022-12-26T07:22:25;100031.00;;;9.72;100.00
4085;BME280;2057;50.858;6.572;2022-12-26T07:24:50;100025.94;;;9.72;100.00
4085;BME280;2057;50.858;6.572;2022-12-26T07:27:15;100026.03;;;9.76;100.00
4085;BME280;2057;50.858;6.572;2022-12-26T07:29:41;100036.31;;;9.79;100.00
4085;BME280;2057;50.858;6.572;2022-12-26T07:32:06;100055.53;;;9.73;100.00
4085;BME280;2057;50.858;6.572;2022-12-26T07:34:31;100049.69;;;9.75;100.00
4085;BME280;2057;50.858;6.572;2022-12-26T07:36:56;100056.19;;;9.69;100.00
4085;BME280;2057;50.858;6.572;2022-12-26T07:39:22;100074.94;;;9.73;100.00
4085;BME280;2057;50.858;6.572;2022-12-26T07:41:49;100061.53;;;9.76;100.00
4085;BME280;2057;50.858;6.572;2022-12-26T07:44:28;100063.16;;;9.73;100.00
4085;BME280;2057;50.858;6.572;2022-12-26T07:46:55;100056.34;;;9.72;100.00
4085;BME280;2057;50.858;6.572;2022-12-26T07:49:22;100062.34;;;9.75;100.00
4085;BME280;2057;50.858;6.572;2022-12-26T07:51:48;100057.56;;;9.81;100.00
4085;BME280;2057;50.858;6.572;2022-12-26T07:54:14;100063.47;;;9.81;100.00
4085;BME280;2057;50.858;6.572;2022-12-26T07:56:39;100075.31;;;9.81;100.00
4085;BME280;2057;50.858;6.572;2022-12-26T07:59:13;100085.84;;;9.90;100.00
4085;BME280;2057;50.858;6.572;2022-12-26T08:01:39;100078.03;;;9.85;100.00
4085;BME280;2057;50.858;6.572;2022-12-26T08:04:05;100077.56;;;9.94;100.00
4085;BME280;2057;50.858;6.572;2022-12-26T08:06:30;100071.59;;;9.92;100.00
4085;BME280;2057;50.858;6.572;2022-12-26T08:08:55;100070.31;;;10.02;100.00
4085;BME280;2057;50.858;6.572;2022-12-26T08:11:22;100061.19;;;10.05;100.00
4085;BME280;2057;50.858;6.572;2022-12-26T08:13:49;100057.25;;;10.12;100.00
4085;BME280;2057;50.858;6.572;2022-12-26T08:16:15;100069.41;;;10.19;100.00
4085;BME280;2057;50.858;6.572;2022-12-26T08:18:41;100071.78;;;10.16;100.00
4085;BME280;2057;50.858;6.572;2022-12-26T08:21:06;100071.88;;;10.18;100.00
4085;BME280;2057;50.858;6.572;2022-12-26T08:23:32;100070.94;;;10.16;100.00
4085;BME280;2057;50.858;6.572;2022-12-26T08:25:58;100075.25;;;10.18;100.00
4085;BME280;2057;50.858;6.572;2022-12-26T08:28:23;100071.72;;;10.15;100.00
4085;BME280;2057;50.858;6.572;2022-12-26T08:30:49;100066.91;;;10.21;100.00
4085;BME280;2057;50.858;6.572;2022-12-26T08:33:14;100061.97;;;10.24;100.00
4085;BME280;2057;50.858;6.572;2022-12-26T08:35:40;100063.78;;;10.27;100.00
4085;BME280;2057;50.858;6.572;2022-12-26T08:38:06;100072.38;;;10.30;100.00
4085;BME280;2057;50.858;6.572;2022-12-26T08:40:31;100074.88;;;10.29;100.00
4085;BME280;2057;50.858;6.572;2022-12-26T08:42:57;100073.56;;;10.37;100.00
4085;BME280;2057;50.858;6.572;2022-12-26T08:45:23;100075.81;;;10.31;100.00
4085;BME280;2057;50.858;6.572;2022-12-26T08:47:53;100082.59;;;10.32;100.00
4085;BME280;2057;50.858;6.572;2022-12-26T08:50:18;100087.88;;;10.36;100.00
4085;BME280;2057;50.858;6.572;2022-12-26T08:52:44;100083.13;;;10.43;100.00
4085;BME280;2057;50.858;6.572;2022-12-26T08:55:09;100091.63;;;10.45;100.00
4085;BME280;2057;50.858;6.572;2022-12-26T08:57:35;100103.53;;;10.46;100.00
4085;BME280;2057;50.858;6.572;2022-12-26T09:00:00;100106.81;;;10.43;100.00
4085;BME280;2057;50.858;6.572;2022-12-26T09:02:26;100106.16;;;10.47;100.00
4085;BME280;2057;50.858;6.572;2022-12-26T09:04:51;100116.91;;;10.42;100.00
4085;BME280;2057;50.858;6.572;2022-12-26T09:07:17;100121.22;;;10.44;100.00
4085;BME280;2057;50.858;6.572;2022-12-26T09:09:42;100111.44;;;10.52;100.00
4085;BME280;2057;50.858;6.572;2022-12-26T09:12:09;100123.38;;;10.55;100.00
4085;BME280;2057;50.858;6.572;2022-12-26T09:14:34;100130.25;;;10.57;100.00
4085;BME280;2057;50.858;6.572;2022-12-26T09:17:00;100119.34;;;10.60;100.00
4085;BME280;2057;50.858;6.572;2022-12-26T09:19:25;100140.66;;;10.63;100.00
4085;BME280;2057;50.858;6.572;2022-12-26T09:21:53;100141.34;;;10.59;100.00
4085;BME280;2057;50.858;6.572;2022-12-26T09:24:39;100134.72;;;10.63;100.00
4085;BME280;2057;50.858;6.572;2022-12-26T09:27:04;100147.38;;;10.61;100.00
4085;BME280;2057;50.858;6.572;2022-12-26T09:29:29;100133.97;;;10.65;100.00
4085;BME280;2057;50.858;6.572;2022-12-26T09:31:55;100151.94;;;10.70;100.00
4085;BME280;2057;50.858;6.572;2022-12-26T09:34:20;100162.06;;;10.69;100.00
4085;BME280;2057;50.858;6.572;2022-12-26T09:36:45;100172.94;;;10.66;100.00
4085;BME280;2057;50.858;6.572;2022-12-26T09:39:11;100172.31;;;10.72;100.00
4085;BME280;2057;50.858;6.572;2022-12-26T09:49:31;100177.47;;;10.73;100.00
4085;BME280;2057;50.858;6.572;2022-12-26T09:52:07;100162.44;;;10.78;100.00
4085;BME280;2057;50.858;6.572;2022-12-26T09:54:42;100155.88;;;10.83;100.00
4085;BME280;2057;50.858;6.572;2022-12-26T09:57:19;100169.06;;;10.74;100.00
4085;BME280;2057;50.858;6.572;2022-12-26T09:59:53;100170.06;;;10.78;100.00
4085;BME280;2057;50.858;6.572;2022-12-26T10:02:21;100160.09;;;10.82;100.00
4085;BME280;2057;50.858;6.572;2022-12-26T10:04:47;100163.44;;;10.81;100.00
4085;BME280;2057;50.858;6.572;2022-12-26T10:07:36;100173.41;;;10.77;100.00
4085;BME280;2057;50.858;6.572;2022-12-26T10:10:23;100185.56;;;10.84;100.00
4085;BME280;2057;50.858;6.572;2022-12-26T10:13:07;100185.41;;;10.81;100.00
4085;BME280;2057;50.858;6.572;2022-12-26T10:15:59;100192.31;;;10.83;100.00
4085;BME280;2057;50.858;6.572;2022-12-26T10:21:29;100183.06;;;10.86;100.00
4085;BME280;2057;50.858;6.572;2022-12-26T10:24:20;100172.00;;;10.83;100.00
4085;BME280;2057;50.858;6.572;2022-12-26T10:26:49;100185.69;;;10.87;100.00
4085;BME280;2057;50.858;6.572;2022-12-26T10:29:18;100183.00;;;10.84;100.00
4085;BME280;2057;50.858;6.572;2022-12-26T10:31:55;100172.31;;;10.91;100.00
4085;BME280;2057;50.858;6.572;2022-12-26T10:34:44;100177.34;;;10.90;100.00
4085;BME280;2057;50.858;6.572;2022-12-26T10:37:17;100180.63;;;10.87;100.00
4085;BME280;2057;50.858;6.572;2022-12-26T10:39:54;100170.72;;;10.93;100.00
4085;BME280;2057;50.858;6.572;2022-12-26T10:42:40;100173.25;;;10.93;100.00
4085;BME280;2057;50.858;6.572;2022-12-26T10:45:17;100179.06;;;10.91;100.00
4085;BME280;2057;50.858;6.572;2022-12-26T10:47:45;100172.38;;;10.93;100.00
4085;BME280;2057;50.858;6.572;2022-12-26T10:50:17;100179.88;;;10.90;100.00
4085;BME280;2057;50.858;6.572;2022-12-26T10:52:43;100166.97;;;10.85;100.00
4085;BME280;2057;50.858;6.572;2022-12-26T10:55:13;100171.38;;;10.89;100.00
4085;BME280;2057;50.858;6.572;2022-12-26T10:57:40;100161.22;;;10.89;100.00
4085;BME280;2057;50.858;6.572;2022-12-26T11:00:27;100166.44;;;10.92;100.00
4085;BME280;2057;50.858;6.572;2022-12-26T11:11:21;100159.84;;;10.97;100.00
4085;BME280;2057;50.858;6.572;2022-12-26T11:13:53;100162.09;;;10.90;100.00
4085;BME280;2057;50.858;6.572;2022-12-26T11:16:29;100166.19;;;10.86;100.00
4085;BME280;2057;50.858;6.572;2022-12-26T11:18:56;100165.44;;;10.89;100.00
4085;BME280;2057;50.858;6.572;2022-12-26T11:21:24;100166.28;;;10.89;100.00
4085;BME280;2057;50.858;6.572;2022-12-26T11:24:10;100169.13;;;10.95;100.00
4085;BME280;2057;50.858;6.572;2022-12-26T11:26:37;100179.97;;;10.93;100.00
4085;BME280;2057;50.858;6.572;2022-12-26T11:29:06;100173.25;;;10.93;99.61
4085;BME280;2057;50.858;6.572;2022-12-26T11:31:32;100175.00;;;10.94;99.40
4085;BME280;2057;50.858;6.572;2022-12-26T11:33:59;100174.84;;;10.91;98.01
4085;BME280;2057;50.858;6.572;2022-12-26T11:36:27;100175.19;;;10.99;97.84
4085;BME280;2057;50.858;6.572;2022-12-26T11:39:01;100190.22;;;10.94;97.55
4085;BME280;2057;50.858;6.572;2022-12-26T11:44:27;100178.38;;;10.95;96.03
4085;BME280;2057;50.858;6.572;2022-12-26T11:49:32;100209.13;;;11.01;96.68
4085;BME280;2057;50.858;6.572;2022-12-26T11:52:01;100199.16;;;11.06;96.71
4085;BME280;2057;50.858;6.572;2022-12-26T11:54:33;100188.09;;;11.04;96.26
4085;BME280;2057;50.858;6.572;2022-12-26T11:57:20;100195.00;;;11.08;97.19
4085;BME280;2057;50.858;6.572;2022-12-26T11:59:47;100184.47;;;10.98;97.12
4085;BME280;2057;50.858;6.572;2022-12-26T12:02:20;100200.41;;;10.94;98.00
4085;BME280;2057;50.858;6.572;2022-12-26T12:04:47;100194.22;;;10.89;99.88
4085;BME280;2057;50.858;6.572;2022-12-26T12:07:30;100199.59;;;10.76;100.00
4085;BME280;2057;50.858;6.572;2022-12-26T12:10:09;100195.47;;;10.78;100.00
4085;BME280;2057;50.858;6.572;2022-12-26T12:12:50;100195.41;;;10.57;100.00
4085;BME280;2057;50.858;6.572;2022-12-26T12:15:29;100210.53;;;10.55;100.00
4085;BME280;2057;50.858;6.572;2022-12-26T12:21:35;100199.69;;;10.40;100.00
4085;BME280;2057;50.858;6.572;2022-12-26T12:26:30;100193.09;;;10.43;100.00
4085;BME280;2057;50.858;6.572;2022-12-26T12:45:52;100182.63;;;10.55;100.00
4085;BME280;2057;50.858;6.572;2022-12-26T12:51:37;100190.22;;;10.55;100.00
4085;BME280;2057;50.858;6.572;2022-12-26T12:57:08;100196.16;;;10.75;100.00
4085;BME280;2057;50.858;6.572;2022-12-26T13:02:39;100199.84;;;10.82;100.00
4085;BME280;2057;50.858;6.572;2022-12-26T13:08:03;100203.47;;;10.67;100.00
4085;BME280;2057;50.858;6.572;2022-12-26T13:10:32;100210.84;;;10.61;100.00
4085;BME280;2057;50.858;6.572;2022-12-26T13:15:48;100196.78;;;10.50;100.00
4085;BME280;2057;50.858;6.572;2022-12-26T13:18:18;100204.94;;;10.43;100.00
4085;BME280;2057;50.858;6.572;2022-12-26T13:20:50;100206.38;;;10.38;100.00
4085;BME280;2057;50.858;6.572;2022-12-26T13:23:42;100231.34;;;9.92;100.00
4085;BME280;2057;50.858;6.572;2022-12-26T13:26:30;100211.94;;;9.58;100.00
4085;BME280;2057;50.858;6.572;2022-12-26T13:31:40;100214.06;;;9.14;100.00
4085;BME280;2057;50.858;6.572;2022-12-26T13:34:14;100213.19;;;9.14;100.00
4085;BME280;2057;50.858;6.572;2022-12-26T13:36:48;100204.00;;;8.99;100.00
4085;BME280;2057;50.858;6.572;2022-12-26T13:44:46;100207.69;;;8.88;100.00
4085;BME280;2057;50.858;6.572;2022-12-26T13:47:34;100208.78;;;8.93;100.00
4085;BME280;2057;50.858;6.572;2022-12-26T13:53:04;100236.63;;;8.76;100.00
4085;BME280;2057;50.858;6.572;2022-12-26T13:58:54;100226.19;;;8.87;100.00
4085;BME280;2057;50.858;6.572;2022-12-26T14:01:27;100232.75;;;8.83;100.00
4085;BME280;2057;50.858;6.572;2022-12-26T14:22:02;100270.38;;;8.77;100.00
4085;BME280;2057;50.858;6.572;2022-12-26T14:28:08;100271.88;;;8.73;100.00
4085;BME280;2057;50.858;6.572;2022-12-26T14:41:08;100299.22;;;8.64;100.00
4085;BME280;2057;50.858;6.572;2022-12-26T14:43:54;100305.00;;;8.61;100.00
4085;BME280;2057;50.858;6.572;2022-12-26T14:49:18;100309.81;;;8.57;100.00
4085;BME280;2057;50.858;6.572;2022-12-26T14:51:46;100317.97;;;8.36;100.00
4085;BME280;2057;50.858;6.572;2022-12-26T14:56:50;100314.94;;;8.27;100.00
4085;BME280;2057;50.858;6.572;2022-12-26T15:05:02;100335.22;;;8.28;100.00
4085;BME280;2057;50.858;6.572;2022-12-26T15:29:55;100394.88;;;8.10;100.00
4085;BME280;2057;50.858;6.572;2022-12-26T15:38:03;100415.59;;;7.89;100.00
4085;BME280;2057;50.858;6.572;2022-12-26T15:43:33;100429.72;;;7.85;100.00
4085;BME280;2057;50.858;6.572;2022-12-26T15:46:07;100431.22;;;7.97;100.00
4085;BME280;2057;50.858;6.572;2022-12-26T15:51:15;100432.97;;;7.98;100.00
4085;BME280;2057;50.858;6.572;2022-12-26T16:04:56;100463.06;;;8.08;100.00
4085;BME280;2057;50.858;6.572;2022-12-26T16:09:57;100479.47;;;7.87;100.00
4085;BME280;2057;50.858;6.572;2022-12-26T16:12:30;100485.31;;;7.85;100.00
4085;BME280;2057;50.858;6.572;2022-12-26T16:15:21;100479.53;;;7.73;100.00
4085;BME280;2057;50.858;6.572;2022-12-26T16:17:49;100488.91;;;7.61;100.00
4085;BME280;2057;50.858;6.572;2022-12-26T16:23:13;100494.00;;;7.47;100.00
4085;BME280;2057;50.858;6.572;2022-12-26T16:25:45;100498.06;;;7.45;100.00
4085;BME280;2057;50.858;6.572;2022-12-26T16:28:11;100503.50;;;7.51;99.93
4085;BME280;2057;50.858;6.572;2022-12-26T16:30:37;100506.63;;;7.47;99.75
4085;BME280;2057;50.858;6.572;2022-12-26T16:33:03;100511.47;;;7.44;99.53
4085;BME280;2057;50.858;6.572;2022-12-26T16:35:36;100521.28;;;7.40;100.00
4085;BME280;2057;50.858;6.572;2022-12-26T16:38:14;100535.00;;;7.30;100.00
4085;BME280;2057;50.858;6.572;2022-12-26T16:40:45;100525.38;;;7.24;100.00
4085;BME280;2057;50.858;6.572;2022-12-26T16:45:44;100532.00;;;7.09;100.00
4085;BME280;2057;50.858;6.572;2022-12-26T16:48:15;100540.63;;;6.99;95.33
4085;BME280;2057;50.858;6.572;2022-12-26T16:50:49;100520.63;;;7.02;93.04
4085;BME280;2057;50.858;6.572;2022-12-26T16:53:17;100522.66;;;6.94;92.60
4085;BME280;2057;50.858;6.572;2022-12-26T16:55:45;100533.44;;;6.78;92.86
4085;BME280;2057;50.858;6.572;2022-12-26T16:58:38;100542.03;;;6.68;91.70
4085;BME280;2057;50.858;6.572;2022-12-26T17:01:14;100555.00;;;6.61;91.52
4085;BME280;2057;50.858;6.572;2022-12-26T17:03:54;100553.84;;;6.56;91.78